This is the latest recevied weather packets stored in our database for station/object DG6HD-13. If no packets are shown the sender has not sent any weather packets the latest 10 day(s).
| Time | Temp. | Humidity | Pressure | Rain* | Wind** | Luminosity | Snow |
|---|---|---|---|---|---|---|---|
| 1777879607 | 16.67° C | 52% | 1011.4 hPa | - | - | - | - |
| 1777878706 | 16.67° C | 54% | 1011.2 hPa | - | - | - | - |
| 1777877805 | 16.11° C | 55% | 1011.1 hPa | - | - | - | - |
| 1777876905 | 16.11° C | 55% | 1010.9 hPa | - | - | - | - |
| 1777876004 | 15.56° C | 55% | 1010.7 hPa | - | - | - | - |
| 1777875103 | 15° C | 56% | 1010.6 hPa | - | - | - | - |
| 1777874202 | 15° C | 56% | 1010.4 hPa | - | - | - | - |
| 1777873301 | 14.44° C | 56% | 1010.4 hPa | - | - | - | - |
| 1777872400 | 14.44° C | 56% | 1010.3 hPa | - | - | - | - |
| 1777871500 | 14.44° C | 55% | 1010.3 hPa | - | - | - | - |
| 1777870599 | 14.44° C | 54% | 1010.2 hPa | - | - | - | - |
| 1777869698 | 14.44° C | 54% | 1010.2 hPa | - | - | - | - |
| 1777868797 | 14.44° C | 54% | 1010.2 hPa | - | - | - | - |
| 1777867896 | 14.44° C | 53% | 1010 hPa | - | - | - | - |
| 1777866995 | 14.44° C | 53% | 1009.9 hPa | - | - | - | - |
| 1777866095 | 14.44° C | 52% | 1009.8 hPa | - | - | - | - |
| 1777864293 | 15° C | 52% | 1010 hPa | - | - | - | - |
| 1777846275 | 17.78° C | 43% | 1009.5 hPa | - | - | - | - |
| 1777845375 | 18.33° C | 41% | 1009.4 hPa | - | - | - | - |
| 1777844474 | 18.33° C | 39% | 1009 hPa | - | - | - | - |
| 1777843573 | 18.89° C | 39% | 1008.9 hPa | - | - | - | - |
| 1777842672 | 18.89° C | 38% | 1008.7 hPa | - | - | - | - |
| 1777841771 | 18.89° C | 37% | 1008.5 hPa | - | - | - | - |
| 1777839969 | 19.44° C | 37% | 1008.6 hPa | - | - | - | - |
| 1777839069 | 20° C | 36% | 1008.6 hPa | - | - | - | - |
* Rain since midnight (hover to see other rain measurements)
** Current wind speed in m/s (hover to see current wind gust speed)